Time;durP1;ratioP1;P1;durP2;ratioP2;P2;SDS_P1;SDS_P2;PMS_P1;PMS_P2;Temp;Humidity;BMP_temperature;BMP_pressure;BME280_temperature;BME280_humidity;BME280_pressure;Samples;Min_cycle;Max_cycle;Signal;HPM_P1;HPM_P2
2022/08/04 00:00:12;;;;;;;1.97;1.67;;;29.40;44.80;;;;;;5022150;28;20977;-66
2022/08/04 00:02:51;;;;;;;1.63;1.53;;;29.40;44.70;;;;;;5013369;28;20457;-65
2022/08/04 00:05:29;;;;;;;1.67;1.43;;;29.40;44.80;;;;;;5014673;28;20495;-66
2022/08/04 00:08:06;;;;;;;2.50;1.77;;;29.40;44.80;;;;;;5007333;28;20460;-66
2022/08/04 00:10:35;;;;;;;1.93;1.70;;;29.40;44.80;;;;;;5012802;28;20526;-65
2022/08/04 00:13:04;;;;;;;2.60;1.80;;;29.40;44.80;;;;;;5013727;28;20855;-67
2022/08/04 00:15:33;;;;;;;2.23;1.93;;;29.40;44.80;;;;;;5014503;28;20425;-66
2022/08/04 00:18:05;;;;;;;5.70;2.23;;;29.40;44.70;;;;;;5018987;28;20515;-66
2022/08/04 00:20:39;;;;;;;1.50;1.40;;;29.40;44.80;;;;;;5013786;28;20903;-66
2022/08/04 00:23:08;;;;;;;4.40;2.30;;;29.40;44.80;;;;;;5020861;28;20448;-66
2022/08/04 00:25:40;;;;;;;2.53;1.63;;;29.40;44.80;;;;;;5017604;28;20479;-66
2022/08/04 00:28:09;;;;;;;3.70;1.73;;;29.40;44.80;;;;;;5025540;28;20440;-66
2022/08/04 00:30:37;;;;;;;2.40;1.67;;;29.40;44.80;;;;;;5014288;28;20469;-66
2022/08/04 00:33:06;;;;;;;4.20;1.90;;;29.40;44.80;;;;;;5013160;28;20472;-67
2022/08/04 00:35:36;;;;;;;1.57;1.47;;;29.40;44.80;;;;;;5013691;28;20508;-66
2022/08/04 00:38:04;;;;;;;2.87;1.87;;;29.40;44.90;;;;;;5021758;28;20461;-66
2022/08/04 00:40:42;;;;;;;2.77;1.60;;;29.40;44.80;;;;;;5019670;28;20465;-65
2022/08/04 00:43:18;;;;;;;2.47;1.40;;;29.40;44.90;;;;;;5021731;28;20531;-65
2022/08/04 00:46:20;;;;;;;1.83;1.40;;;29.40;44.90;;;;;;5013527;28;20468;-66
2022/08/04 00:49:02;;;;;;;1.83;1.70;;;29.40;44.90;;;;;;5013540;28;20425;-65
2022/08/04 00:51:41;;;;;;;2.20;1.93;;;29.40;44.90;;;;;;5015520;28;21020;-66
2022/08/04 00:54:16;;;;;;;3.10;1.97;;;29.40;44.90;;;;;;5017495;28;20428;-71
2022/08/04 00:57:03;;;;;;;4.27;2.20;;;29.40;44.90;;;;;;5016175;28;20505;-70
2022/08/04 00:59:49;;;;;;;2.20;1.70;;;29.40;44.80;;;;;;5016859;28;20440;-70
2022/08/04 01:02:28;;;;;;;1.67;1.57;;;29.40;44.90;;;;;;5017452;28;20465;-71
2022/08/04 01:05:04;;;;;;;2.30;1.57;;;29.40;46.20;;;;;;5007427;28;20464;-71
2022/08/04 01:07:49;;;;;;;3.17;2.20;;;29.40;44.90;;;;;;5014573;28;20859;-71
2022/08/04 01:10:27;;;;;;;2.00;1.80;;;29.40;45.00;;;;;;5016625;28;20887;-71
2022/08/04 01:13:17;;;;;;;1.60;1.50;;;29.40;45.00;;;;;;5006155;28;20476;-71
2022/08/04 01:15:57;;;;;;;2.40;1.60;;;29.40;45.00;;;;;;5029953;28;20421;-71
2022/08/04 01:18:35;;;;;;;2.40;1.80;;;29.40;45.10;;;;;;5013182;28;20524;-71
2022/08/04 01:21:36;;;;;;;2.10;1.87;;;29.40;45.00;;;;;;5012425;28;20468;-70
2022/08/04 01:24:25;;;;;;;1.70;1.43;;;29.40;45.00;;;;;;4999558;28;20429;-71
2022/08/04 01:27:00;;;;;;;2.33;1.60;;;29.40;45.10;;;;;;5010127;28;20496;-71
2022/08/04 01:29:35;;;;;;;2.30;1.53;;;29.40;45.10;;;;;;5020493;28;20472;-71
2022/08/04 01:32:21;;;;;;;1.63;1.53;;;29.40;45.00;;;;;;5008564;28;20548;-70
2022/08/04 01:34:58;;;;;;;2.77;1.80;;;29.40;45.10;;;;;;5009070;28;20445;-71
2022/08/04 01:37:39;;;;;;;1.93;1.83;;;29.40;45.00;;;;;;5009635;28;20461;-71
2022/08/04 01:40:09;;;;;;;2.40;1.60;;;29.40;45.10;;;;;;5012577;28;20471;-71
2022/08/04 01:42:38;;;;;;;2.53;1.83;;;29.40;45.10;;;;;;5022640;28;20455;-71
2022/08/04 01:45:11;;;;;;;2.70;1.63;;;29.40;45.10;;;;;;5016673;28;20531;-71
2022/08/04 01:47:43;;;;;;;1.90;1.67;;;29.40;45.10;;;;;;5011444;28;20473;-71
2022/08/04 01:50:13;;;;;;;4.30;1.20;;;29.40;45.20;;;;;;5013224;28;20452;-71
2022/08/04 01:52:43;;;;;;;1.50;1.40;;;29.40;45.20;;;;;;5012065;28;20535;-70
2022/08/04 01:55:18;;;;;;;1.60;1.40;;;29.40;45.20;;;;;;5011641;28;20448;-71
2022/08/04 01:57:49;;;;;;;2.63;1.80;;;29.40;45.20;;;;;;5011796;28;20472;-71
2022/08/04 02:00:20;;;;;;;1.70;1.40;;;29.40;45.30;;;;;;5028259;28;21015;-71
2022/08/04 02:02:50;;;;;;;1.70;1.60;;;29.40;46.50;;;;;;5003746;28;20469;-71
2022/08/04 02:05:20;;;;;;;1.63;1.50;;;29.40;45.30;;;;;;5012852;28;20457;-70
2022/08/04 02:08:01;;;;;;;1.53;1.43;;;29.40;45.30;;;;;;4998549;28;20558;-70
2022/08/04 02:10:35;;;;;;;2.20;1.77;;;29.40;45.30;;;;;;5010051;28;20480;-71
2022/08/04 02:13:15;;;;;;;1.73;1.63;;;29.40;45.30;;;;;;5012207;28;20468;-70
2022/08/04 02:15:57;;;;;;;2.03;1.43;;;29.40;45.30;;;;;;5012615;28;20451;-71
2022/08/04 02:18:31;;;;;;;1.80;1.40;;;29.40;45.40;;;;;;5008872;28;20503;-72
2022/08/04 02:21:01;;;;;;;1.30;1.20;;;29.40;45.40;;;;;;5010945;28;21017;-71
2022/08/04 02:23:34;;;;;;;1.40;1.30;;;29.40;45.40;;;;;;5013373;28;20945;-71
2022/08/04 02:26:04;;;;;;;1.57;1.40;;;29.30;45.40;;;;;;5015877;28;20487;-70
2022/08/04 02:28:39;;;;;;;1.90;1.70;;;29.30;45.50;;;;;;5020252;28;20988;-71
2022/08/04 02:31:22;;;;;;;1.30;1.13;;;29.30;45.50;;;;;;5016489;28;20498;-70
2022/08/04 02:34:00;;;;;;;1.77;1.50;;;29.30;45.40;;;;;;5010884;28;20487;-71
2022/08/04 02:36:33;;;;;;;1.40;1.13;;;29.30;45.40;;;;;;5015072;28;20460;-70
2022/08/04 02:39:04;;;;;;;1.20;1.10;;;29.30;45.30;;;;;;5020209;28;20429;-71
2022/08/04 02:41:33;;;;;;;1.67;1.30;;;29.30;45.40;;;;;;5009882;28;20560;-70
2022/08/04 02:44:05;;;;;;;3.70;1.63;;;29.30;45.40;;;;;;5011525;28;20433;-72
2022/08/04 02:46:36;;;;;;;1.87;1.70;;;29.30;46.60;;;;;;5011761;28;20472;-71
2022/08/04 02:49:06;;;;;;;1.50;1.40;;;29.30;45.50;;;;;;5016328;28;20830;-70
2022/08/04 02:51:36;;;;;;;1.77;1.57;;;29.30;45.40;;;;;;5019726;28;20478;-71
2022/08/04 02:54:06;;;;;;;1.33;1.23;;;29.30;45.40;;;;;;5020180;28;21063;-71
2022/08/04 02:56:36;;;;;;;1.67;1.17;;;29.30;45.50;;;;;;5010235;28;20522;-71
2022/08/04 02:59:07;;;;;;;2.20;1.60;;;29.30;45.40;;;;;;5017307;28;20516;-71
2022/08/04 03:01:37;;;;;;;2.40;1.30;;;29.30;45.50;;;;;;5018068;28;20881;-71
2022/08/04 03:04:43;;;;;;;1.30;1.20;;;29.30;45.40;;;;;;5006945;28;20437;-71
2022/08/04 03:07:51;;;;;;;4.50;1.37;;;29.30;45.40;;;;;;5018091;28;20464;-72
2022/08/04 03:10:43;;;;;;;1.37;1.27;;;29.30;45.40;;;;;;5016713;28;20467;-70
2022/08/04 03:13:38;;;;;;;1.40;1.30;;;29.20;45.30;;;;;;5016171;28;20457;-71
2022/08/04 03:16:29;;;;;;;1.40;1.30;;;29.30;45.50;;;;;;5005974;28;20505;-71
2022/08/04 03:19:44;;;;;;;1.43;1.23;;;29.30;45.50;;;;;;5003654;28;20452;-71
2022/08/04 03:22:25;;;;;;;1.67;1.57;;;29.20;45.40;;;;;;5006386;28;21167;-71
2022/08/04 03:25:25;;;;;;;1.47;1.37;;;29.30;45.50;;;;;;5005354;28;20864;-71
2022/08/04 03:28:26;;;;;;;2.60;1.40;;;29.20;45.50;;;;;;5003333;28;20880;-70
2022/08/04 03:31:24;;;;;;;2.07;1.40;;;29.20;45.50;;;;;;5008356;28;20443;-70
2022/08/04 03:34:07;;;;;;;1.80;1.10;;;29.20;45.40;;;;;;5005779;28;20499;-70
2022/08/04 03:37:05;;;;;;;1.40;1.17;;;29.20;45.50;;;;;;5020912;28;20468;-71
2022/08/04 03:40:14;;;;;;;1.60;1.50;;;29.20;45.50;;;;;;5010674;28;20495;-70
2022/08/04 03:43:10;;;;;;;1.20;1.10;;;29.20;45.40;;;;;;5010741;28;20475;-70
2022/08/04 03:46:37;;;;;;;3.13;1.37;;;29.20;45.40;;;;;;5004326;28;20459;-70
2022/08/04 03:49:41;;;;;;;1.30;1.20;;;29.20;45.50;;;;;;4991358;28;20506;-72
2022/08/04 03:55:35;;;;;;;1.20;1.00;;;29.20;45.50;;;;;;5005019;28;20448;-70
2022/08/04 03:58:34;;;;;;;1.20;1.10;;;29.20;45.60;;;;;;5015287;28;20465;-70
2022/08/04 04:01:12;;;;;;;4.60;1.00;;;29.20;45.40;;;;;;5018420;28;20526;-70
2022/08/04 04:04:09;;;;;;;1.63;1.30;;;29.10;45.50;;;;;;5010757;28;20564;-70
2022/08/04 04:07:06;;;;;;;1.37;1.27;;;29.20;45.40;;;;;;4999140;28;20480;-70
2022/08/04 04:10:12;;;;;;;1.33;1.00;;;29.20;45.60;;;;;;5018803;28;20453;-71
2022/08/04 04:13:00;;;;;;;2.07;1.40;;;29.10;45.50;;;;;;5016715;28;20464;-70
2022/08/04 04:15:51;;;;;;;1.67;1.40;;;29.10;45.60;;;;;;5009887;28;20430;-70
2022/08/04 04:18:38;;;;;;;1.00;0.90;;;29.10;45.60;;;;;;5022838;28;20461;-70
2022/08/04 04:21:27;;;;;;;1.47;1.10;;;29.10;45.60;;;;;;5013298;28;20906;-70
2022/08/04 04:24:40;;;;;;;1.30;1.20;;;29.10;45.60;;;;;;5022936;28;20430;-70
2022/08/04 04:27:23;;;;;;;1.30;1.20;;;29.10;45.60;;;;;;4948031;28;20680;-72
2022/08/04 04:30:06;;;;;;;3.50;1.40;;;29.10;45.60;;;;;;5001588;28;20518;-70
2022/08/04 04:32:52;;;;;;;1.33;0.93;;;29.10;45.50;;;;;;5007946;28;20468;-70
2022/08/04 04:35:33;;;;;;;1.03;0.90;;;29.10;45.60;;;;;;5013860;28;21117;-70
2022/08/04 04:38:21;;;;;;;1.20;1.10;;;29.10;45.70;;;;;;5008622;28;20516;-71
2022/08/04 04:41:03;;;;;;;1.57;1.33;;;29.10;45.70;;;;;;5010184;28;20883;-70
2022/08/04 04:43:59;;;;;;;1.70;1.23;;;29.10;45.70;;;;;;5015691;28;20772;-70
2022/08/04 04:46:40;;;;;;;1.37;1.27;;;29.10;45.80;;;;;;5011347;28;20889;-70
2022/08/04 04:49:20;;;;;;;1.80;1.30;;;29.10;45.80;;;;;;5015051;28;20499;-71
2022/08/04 04:51:51;;;;;;;1.20;1.10;;;29.10;45.70;;;;;;5004464;28;20453;-71
2022/08/04 04:54:28;;;;;;;1.50;1.40;;;29.10;45.90;;;;;;5020929;28;20527;-71
2022/08/04 04:57:07;;;;;;;1.40;1.30;;;29.10;45.80;;;;;;4997313;28;20500;-70
2022/08/04 04:59:43;;;;;;;1.80;1.40;;;29.10;45.70;;;;;;5009687;28;20437;-70
2022/08/04 05:02:36;;;;;;;1.87;1.47;;;29.10;45.80;;;;;;5020138;28;20892;-70
2022/08/04 05:05:35;;;;;;;2.60;1.90;;;29.10;45.70;;;;;;5014844;28;20437;-70
2022/08/04 05:08:27;;;;;;;1.30;1.20;;;29.00;45.70;;;;;;4987935;28;20875;-70
2022/08/04 05:11:51;;;;;;;1.40;1.30;;;29.00;45.80;;;;;;5011923;28;20469;-71
2022/08/04 05:14:27;;;;;;;1.20;1.10;;;29.00;45.70;;;;;;4967056;28;21023;-70
2022/08/04 05:17:15;;;;;;;1.43;1.30;;;29.00;45.80;;;;;;5011391;28;20543;-70
2022/08/04 05:19:55;;;;;;;1.13;1.00;;;29.00;45.80;;;;;;5012486;28;20507;-71
2022/08/04 05:22:28;;;;;;;1.23;1.00;;;29.00;45.80;;;;;;5012596;28;20564;-70
2022/08/04 05:25:04;;;;;;;1.87;1.70;;;29.00;45.80;;;;;;5019128;28;20488;-70
2022/08/04 05:27:38;;;;;;;1.70;1.10;;;29.00;45.90;;;;;;5020763;28;20529;-70
2022/08/04 05:30:09;;;;;;;1.50;1.27;;;29.00;45.90;;;;;;5027428;28;20448;-71
2022/08/04 05:32:46;;;;;;;1.33;1.23;;;29.00;45.90;;;;;;5012614;28;20527;-70
2022/08/04 05:35:22;;;;;;;2.70;1.47;;;29.00;45.90;;;;;;5009046;28;20848;-72
2022/08/04 05:38:14;;;;;;;1.20;1.10;;;29.00;45.90;;;;;;5006790;28;20461;-71
2022/08/04 05:40:43;;;;;;;2.90;2.40;;;29.00;46.10;;;;;;5010457;28;20495;-71
2022/08/04 05:43:12;;;;;;;4.07;2.80;;;29.00;46.10;;;;;;5011698;28;20518;-71
2022/08/04 05:45:41;;;;;;;3.20;2.90;;;28.90;45.70;;;;;;5013073;28;20441;-71
2022/08/04 05:48:11;;;;;;;7.60;2.83;;;28.90;45.60;;;;;;5004228;28;20481;-71
2022/08/04 05:50:39;;;;;;;4.73;3.80;;;28.90;45.30;;;;;;5013916;28;20464;-71
2022/08/04 05:53:10;;;;;;;4.00;3.60;;;28.80;44.80;;;;;;5012094;28;20531;-71
2022/08/04 05:55:38;;;;;;;3.60;2.73;;;28.80;44.80;;;;;;5011585;28;20823;-71
2022/08/04 05:58:29;;;;;;;3.63;2.87;;;28.70;44.70;;;;;;5020302;28;21000;-72
2022/08/04 06:00:59;;;;;;;6.07;3.70;;;28.80;44.80;;;;;;5020655;28;20454;-71
2022/08/04 06:03:30;;;;;;;4.90;3.70;;;28.70;44.70;;;;;;5015477;28;20483;-72
2022/08/04 06:05:59;;;;;;;5.70;3.50;;;28.70;44.60;;;;;;5011541;28;20958;-71
2022/08/04 06:08:29;;;;;;;8.63;3.73;;;28.70;44.60;;;;;;5012078;28;20465;-71
2022/08/04 06:11:02;;;;;;;5.33;4.30;;;28.70;44.70;;;;;;5010602;28;20469;-71
2022/08/04 06:13:33;;;;;;;4.20;3.60;;;28.60;44.50;;;;;;5004586;28;20438;-71
2022/08/04 06:16:19;;;;;;;5.57;3.33;;;28.60;44.50;;;;;;5016712;28;20467;-71
2022/08/04 06:19:01;;;;;;;3.50;2.73;;;28.60;44.60;;;;;;5012397;28;20447;-71
2022/08/04 06:21:51;;;;;;;2.87;2.37;;;28.60;44.80;;;;;;5006493;28;20519;-71
2022/08/04 06:24:22;;;;;;;4.37;2.57;;;28.60;44.90;;;;;;5010667;28;20441;-71
2022/08/04 06:26:52;;;;;;;4.33;3.17;;;28.60;45.10;;;;;;5010954;28;20464;-71
2022/08/04 06:29:27;;;;;;;6.87;3.57;;;28.60;45.10;;;;;;5012422;28;20489;-72
2022/08/04 06:32:01;;;;;;;3.80;2.77;;;28.60;45.10;;;;;;5008512;28;20463;-71
2022/08/04 06:34:52;;;;;;;4.73;3.50;;;28.50;45.20;;;;;;5017987;28;20551;-70
2022/08/04 06:37:22;;;;;;;3.93;2.47;;;28.50;45.20;;;;;;5011561;28;20870;-71
2022/08/04 06:40:10;;;;;;;3.70;3.03;;;28.60;45.20;;;;;;5006111;28;20475;-71
2022/08/04 06:42:59;;;;;;;3.80;2.20;;;28.60;45.10;;;;;;5009143;28;20477;-71
2022/08/04 06:45:28;;;;;;;2.83;2.40;;;28.60;45.10;;;;;;5011849;28;20837;-71
2022/08/04 06:47:57;;;;;;;5.70;2.77;;;28.60;45.00;;;;;;5019462;28;20527;-71
2022/08/04 06:50:27;;;;;;;5.00;2.20;;;28.70;44.80;;;;;;5012293;28;20484;-71
2022/08/04 06:53:16;;;;;;;3.80;2.43;;;28.70;44.70;;;;;;5003688;28;20484;-71
2022/08/04 06:55:46;;;;;;;5.23;2.80;;;28.80;44.60;;;;;;5011101;28;20808;-71
2022/08/04 06:58:16;;;;;;;4.07;2.93;;;28.90;44.50;;;;;;5011171;28;20565;-71
2022/08/04 07:00:46;;;;;;;4.27;2.60;;;28.90;44.20;;;;;;5016679;28;20475;-70
2022/08/04 07:03:17;;;;;;;4.83;3.23;;;28.90;44.30;;;;;;5008510;28;20453;-70
2022/08/04 07:05:48;;;;;;;5.43;2.60;;;28.90;44.50;;;;;;5014287;28;20436;-70
2022/08/04 07:08:17;;;;;;;4.07;2.40;;;28.80;44.50;;;;;;5022733;28;20514;-70
2022/08/04 07:10:46;;;;;;;4.10;2.63;;;28.70;44.50;;;;;;5009004;28;20645;-70
2022/08/04 07:13:16;;;;;;;5.60;3.00;;;28.70;44.60;;;;;;5009670;28;20559;-70
2022/08/04 07:15:46;;;;;;;5.13;2.33;;;28.70;44.80;;;;;;5016749;28;20459;-71
2022/08/04 07:18:14;;;;;;;3.53;2.40;;;28.70;44.80;;;;;;5017206;28;20527;-70
2022/08/04 07:20:43;;;;;;;4.87;2.90;;;28.70;44.90;;;;;;5010564;28;20465;-70
2022/08/04 07:23:16;;;;;;;4.10;2.50;;;28.70;45.00;;;;;;5002098;28;20461;-70
2022/08/04 07:25:49;;;;;;;2.53;2.30;;;28.70;45.00;;;;;;5009340;28;20449;-70
2022/08/04 07:28:30;;;;;;;4.00;2.20;;;28.70;45.00;;;;;;5026457;28;20464;-70
2022/08/04 07:30:58;;;;;;;2.57;2.37;;;28.70;45.10;;;;;;5010882;28;20479;-70
2022/08/04 07:33:28;;;;;;;2.57;2.37;;;28.70;45.10;;;;;;5014456;28;20441;-70
2022/08/04 07:35:57;;;;;;;5.47;2.17;;;28.70;45.10;;;;;;5019477;28;20436;-70
2022/08/04 07:38:41;;;;;;;3.00;2.27;;;28.70;45.00;;;;;;5009823;28;20849;-70
2022/08/04 07:41:22;;;;;;;4.53;2.40;;;28.70;45.10;;;;;;5016960;28;21054;-70
2022/08/04 07:44:07;;;;;;;2.27;2.07;;;28.70;45.10;;;;;;5015359;28;20440;-70
2022/08/04 07:46:36;;;;;;;2.93;2.40;;;28.70;45.10;;;;;;5020352;28;20472;-70
2022/08/04 07:49:04;;;;;;;2.17;1.97;;;28.70;45.10;;;;;;5022478;28;20461;-71
2022/08/04 07:51:35;;;;;;;3.50;2.97;;;28.70;45.10;;;;;;5013787;28;20871;-70
2022/08/04 07:54:08;;;;;;;3.33;2.47;;;28.70;45.10;;;;;;5023628;28;20483;-70
2022/08/04 07:56:37;;;;;;;2.43;2.13;;;28.70;45.20;;;;;;5013344;28;20518;-70
2022/08/04 07:59:06;;;;;;;6.20;2.63;;;28.70;45.20;;;;;;5020706;28;20494;-70
2022/08/04 08:01:35;;;;;;;2.23;2.03;;;28.70;45.30;;;;;;5017839;28;20468;-70
2022/08/04 08:04:07;;;;;;;4.13;2.20;;;28.70;45.30;;;;;;5012994;28;20942;-70
2022/08/04 08:06:36;;;;;;;4.03;2.23;;;28.70;45.30;;;;;;5024248;28;20484;-70
2022/08/04 08:09:14;;;;;;;2.30;2.10;;;28.70;45.50;;;;;;5019759;28;20476;-70
2022/08/04 08:11:46;;;;;;;2.73;2.10;;;28.70;45.40;;;;;;5013909;28;20465;-70
2022/08/04 08:14:35;;;;;;;3.23;2.20;;;28.70;45.30;;;;;;5024629;28;20468;-70
2022/08/04 08:17:04;;;;;;;6.07;2.00;;;28.70;45.40;;;;;;5022598;28;20473;-70
2022/08/04 08:19:34;;;;;;;2.20;2.07;;;28.70;45.40;;;;;;5017218;28;20526;-70
2022/08/04 08:22:03;;;;;;;2.70;2.00;;;28.70;45.30;;;;;;5022245;28;20982;-70
2022/08/04 08:24:36;;;;;;;2.00;1.90;;;28.70;45.40;;;;;;5020707;28;20486;-70
2022/08/04 08:27:06;;;;;;;2.67;2.30;;;28.70;45.40;;;;;;5013562;28;20457;-70
2022/08/04 08:29:35;;;;;;;3.07;2.33;;;28.70;45.40;;;;;;5022208;28;21128;-70
2022/08/04 08:32:07;;;;;;;2.73;2.47;;;28.70;46.70;;;;;;5012723;28;20456;-70
2022/08/04 08:34:37;;;;;;;2.50;2.23;;;28.70;45.40;;;;;;5015759;28;20492;-70
2022/08/04 08:37:14;;;;;;;2.20;2.00;;;28.70;45.40;;;;;;5025483;28;20464;-70
2022/08/04 08:39:55;;;;;;;2.40;2.20;;;28.70;45.40;;;;;;5011794;28;20453;-70
2022/08/04 08:42:59;;;;;;;2.40;2.13;;;28.80;45.50;;;;;;5013748;28;20464;-70
2022/08/04 08:46:20;;;;;;;2.90;2.33;;;28.70;45.40;;;;;;5022316;28;20516;-70
2022/08/04 08:49:40;;;;;;;1.87;1.77;;;28.70;45.40;;;;;;5018638;28;20503;-70
2022/08/04 08:52:43;;;;;;;2.00;1.90;;;28.70;45.40;;;;;;5022139;28;20503;-71
2022/08/04 08:55:42;;;;;;;1.90;1.80;;;28.70;45.40;;;;;;5015135;28;20449;-71
2022/08/04 08:58:35;;;;;;;3.00;2.55;;;28.80;45.30;;;;;;5012679;28;20447;-70
2022/08/04 09:01:12;;;;;;;3.60;2.50;;;28.80;43.00;;;;;;5005363;28;20217;-70
2022/08/04 09:04:02;;;;;;;2.83;1.67;;;28.80;42.90;;;;;;5011587;28;20429;-70
2022/08/04 09:06:47;;;;;;;1.90;1.80;;;28.90;43.20;;;;;;5011156;28;20484;-70
2022/08/04 09:09:47;;;;;;;2.03;1.83;;;28.80;43.30;;;;;;5010652;28;20449;-69
2022/08/04 09:12:25;;;;;;;2.57;1.97;;;28.80;43.40;;;;;;5001129;28;20457;-70
2022/08/04 09:14:58;;;;;;;2.77;1.97;;;28.80;43.40;;;;;;5005367;28;20852;-70
2022/08/04 09:17:30;;;;;;;3.27;2.30;;;28.80;43.50;;;;;;5009163;28;21058;-71
2022/08/04 09:20:04;;;;;;;2.00;1.80;;;28.80;43.60;;;;;;5013096;28;20982;-69
2022/08/04 09:22:43;;;;;;;2.20;1.80;;;28.80;43.70;;;;;;5022568;28;20862;-69
2022/08/04 09:25:18;;;;;;;1.93;1.73;;;28.80;43.80;;;;;;5016012;28;20459;-71
2022/08/04 09:27:53;;;;;;;2.00;1.73;;;28.80;43.90;;;;;;5012099;28;20475;-70
2022/08/04 09:30:29;;;;;;;2.43;2.13;;;28.80;44.00;;;;;;5014020;28;20522;-70
2022/08/04 09:33:07;;;;;;;2.53;2.20;;;28.70;44.10;;;;;;5020784;28;20473;-70
2022/08/04 09:35:47;;;;;;;2.30;2.10;;;28.80;45.50;;;;;;5011916;28;20515;-70
2022/08/04 09:38:20;;;;;;;2.23;2.00;;;28.70;44.30;;;;;;5012188;28;20461;-70
2022/08/04 09:40:57;;;;;;;2.93;2.07;;;28.80;44.50;;;;;;5001829;28;20473;-71
2022/08/04 09:43:45;;;;;;;2.40;2.07;;;28.70;44.40;;;;;;5013453;28;20456;-71
2022/08/04 09:46:39;;;;;;;2.00;1.80;;;28.70;44.50;;;;;;5014533;28;20468;-70
2022/08/04 09:49:14;;;;;;;3.80;2.00;;;28.70;44.50;;;;;;5011466;28;20512;-70
2022/08/04 09:51:53;;;;;;;2.23;2.00;;;28.70;44.40;;;;;;5012230;28;20974;-70
2022/08/04 09:54:33;;;;;;;2.87;2.07;;;28.70;44.50;;;;;;5019345;28;20491;-70
2022/08/04 09:57:13;;;;;;;2.17;1.80;;;28.70;44.50;;;;;;5006051;28;20519;-70
2022/08/04 09:59:47;;;;;;;1.70;1.60;;;28.70;44.50;;;;;;5022250;28;20438;-70
2022/08/04 10:02:21;;;;;;;2.13;2.03;;;28.70;44.50;;;;;;5013382;28;20559;-70
2022/08/04 10:04:53;;;;;;;1.70;1.60;;;28.70;44.50;;;;;;5012127;28;20429;-70
2022/08/04 10:07:59;;;;;;;3.47;2.07;;;28.70;44.60;;;;;;5014660;28;20874;-70
2022/08/04 10:10:53;;;;;;;2.53;1.90;;;28.70;44.60;;;;;;5010013;28;20564;-70
2022/08/04 10:13:36;;;;;;;1.77;1.67;;;28.70;44.70;;;;;;5012094;28;20456;-70
2022/08/04 10:16:24;;;;;;;1.90;1.70;;;28.70;44.60;;;;;;5011940;28;20448;-70
2022/08/04 10:19:02;;;;;;;1.95;1.75;;;28.70;44.60;;;;;;5009550;28;20759;-71
2022/08/04 10:21:42;;;;;;;1.97;1.87;;;28.80;44.60;;;;;;5011155;28;20222;-70
2022/08/04 10:24:35;;;;;;;2.90;1.73;;;28.90;44.20;;;;;;5009975;28;20444;-71
2022/08/04 10:27:10;;;;;;;2.43;2.23;;;29.00;43.50;;;;;;5011368;28;20472;-70
2022/08/04 10:29:43;;;;;;;2.58;2.00;;;29.10;43.50;;;;;;5008517;28;20504;-70
2022/08/04 10:32:17;;;;;;;5.00;2.30;;;29.10;44.10;;;;;;5009816;28;20222;-70
2022/08/04 10:35:01;;;;;;;3.00;2.00;;;29.10;44.10;;;;;;5010998;28;20455;-70
2022/08/04 10:37:32;;;;;;;2.67;2.10;;;29.10;43.90;;;;;;5012402;28;20457;-70
2022/08/04 10:40:36;;;;;;;3.87;2.37;;;29.00;43.90;;;;;;5014430;28;20469;-70
2022/08/04 10:43:12;;;;;;;2.40;1.73;;;29.00;44.00;;;;;;5010429;28;20472;-70
2022/08/04 10:45:56;;;;;;;3.13;2.30;;;29.00;44.00;;;;;;5011145;28;20433;-70
2022/08/04 10:48:39;;;;;;;1.80;1.70;;;28.90;44.10;;;;;;5012638;28;20546;-70
2022/08/04 10:51:18;;;;;;;3.90;2.30;;;28.90;44.20;;;;;;5018786;28;20471;-70
2022/08/04 10:53:54;;;;;;;4.13;1.60;;;28.90;44.10;;;;;;5012350;28;20437;-70
2022/08/04 10:56:29;;;;;;;2.23;2.03;;;28.90;44.20;;;;;;5024553;28;20548;-69
2022/08/04 10:59:04;;;;;;;2.27;2.07;;;28.90;44.20;;;;;;5011059;28;20942;-70
2022/08/04 11:01:36;;;;;;;4.27;2.33;;;28.90;44.30;;;;;;5012647;28;20514;-70
2022/08/04 11:04:31;;;;;;;3.40;2.60;;;28.90;44.30;;;;;;5014041;28;20445;-70
2022/08/04 11:07:00;;;;;;;2.90;2.37;;;28.90;44.30;;;;;;5012012;28;20459;-71
2022/08/04 11:09:29;;;;;;;2.77;2.03;;;28.80;44.30;;;;;;5020360;28;20993;-70
2022/08/04 11:12:05;;;;;;;2.23;2.03;;;28.80;44.50;;;;;;5010959;28;20460;-70
2022/08/04 11:14:38;;;;;;;2.57;2.03;;;28.80;44.50;;;;;;5013337;28;20432;-71
2022/08/04 11:17:09;;;;;;;3.13;2.37;;;28.80;44.50;;;;;;5019801;28;20465;-70
2022/08/04 11:19:47;;;;;;;5.40;2.30;;;28.80;44.50;;;;;;5016814;28;20457;-70
2022/08/04 11:22:25;;;;;;;2.60;2.40;;;28.80;44.50;;;;;;5011652;28;20477;-71
2022/08/04 11:25:03;;;;;;;2.27;2.00;;;28.80;44.60;;;;;;5014455;28;20507;-70
2022/08/04 11:27:43;;;;;;;2.63;2.17;;;28.80;44.70;;;;;;5016243;28;21028;-70
2022/08/04 11:30:14;;;;;;;1.70;1.60;;;28.80;44.70;;;;;;5027429;28;20474;-70
2022/08/04 11:32:47;;;;;;;2.73;2.20;;;28.80;44.70;;;;;;5016851;28;20515;-70
2022/08/04 11:35:30;;;;;;;1.80;1.70;;;28.80;44.60;;;;;;5018974;28;20476;-70
2022/08/04 11:38:08;;;;;;;2.53;2.07;;;28.80;44.80;;;;;;5027814;28;20879;-70
2022/08/04 11:40:41;;;;;;;2.40;2.20;;;28.80;44.80;;;;;;5018734;28;20452;-70
2022/08/04 11:43:36;;;;;;;2.53;2.30;;;28.80;44.90;;;;;;5012448;28;20935;-70
2022/08/04 11:46:32;;;;;;;2.77;2.07;;;28.80;45.10;;;;;;5014603;28;20448;-70
2022/08/04 11:49:05;;;;;;;2.33;1.90;;;28.80;44.90;;;;;;5003962;28;20922;-69
2022/08/04 11:51:36;;;;;;;4.33;2.10;;;28.80;44.80;;;;;;5012574;28;21081;-70
2022/08/04 11:54:05;;;;;;;2.40;1.93;;;28.80;44.80;;;;;;5013783;28;20437;-70
2022/08/04 11:56:33;;;;;;;4.73;1.90;;;28.80;44.80;;;;;;5013095;28;20468;-70
2022/08/04 11:59:06;;;;;;;2.37;1.77;;;28.80;44.90;;;;;;5023605;28;20417;-70
2022/08/04 12:01:46;;;;;;;2.00;1.80;;;28.80;45.00;;;;;;5015687;28;20514;-70
2022/08/04 12:04:25;;;;;;;2.23;2.00;;;28.80;45.10;;;;;;5018585;28;20452;-71
2022/08/04 12:07:02;;;;;;;3.20;1.67;;;28.80;45.10;;;;;;5005394;28;20457;-71
2022/08/04 12:10:01;;;;;;;2.60;1.80;;;28.80;45.10;;;;;;5011091;28;20480;-70
2022/08/04 12:12:37;;;;;;;2.90;2.50;;;28.80;45.20;;;;;;5021290;28;20456;-70
2022/08/04 12:15:20;;;;;;;3.73;2.47;;;28.80;45.10;;;;;;5021073;28;20471;-71
2022/08/04 12:17:58;;;;;;;2.10;1.90;;;28.80;45.10;;;;;;5025751;28;20524;-70
2022/08/04 12:20:32;;;;;;;3.13;2.23;;;28.80;45.20;;;;;;5013567;28;20467;-70
2022/08/04 12:23:20;;;;;;;1.80;1.70;;;28.80;45.20;;;;;;5013632;28;20468;-70
2022/08/04 12:25:54;;;;;;;1.80;1.70;;;28.80;45.30;;;;;;5015678;28;20522;-70
2022/08/04 12:28:28;;;;;;;2.13;1.93;;;28.80;45.30;;;;;;5013082;28;20445;-70
2022/08/04 12:31:22;;;;;;;2.50;1.67;;;28.80;45.30;;;;;;5009466;28;20544;-70
2022/08/04 12:33:56;;;;;;;2.53;1.77;;;28.80;45.20;;;;;;5007935;28;20499;-65
2022/08/04 12:36:39;;;;;;;3.00;2.10;;;28.80;45.40;;;;;;5022208;28;20460;-65
2022/08/04 12:39:14;;;;;;;2.33;2.17;;;28.80;45.30;;;;;;5014262;28;20846;-64
2022/08/04 12:41:58;;;;;;;2.93;1.80;;;28.80;45.40;;;;;;5012885;28;20500;-64
2022/08/04 12:44:33;;;;;;;2.13;1.90;;;28.90;45.40;;;;;;5014397;28;20491;-65
2022/08/04 12:47:08;;;;;;;2.10;1.70;;;28.90;45.40;;;;;;5021929;28;20460;-65
2022/08/04 12:50:00;;;;;;;2.57;2.00;;;28.90;45.40;;;;;;5015010;28;20467;-65
2022/08/04 12:52:35;;;;;;;3.10;1.87;;;28.90;45.50;;;;;;5014360;28;20471;-65
2022/08/04 12:55:28;;;;;;;2.80;1.73;;;28.90;45.50;;;;;;5015926;28;20540;-64
2022/08/04 12:57:57;;;;;;;4.20;2.00;;;28.90;45.50;;;;;;5007904;28;20473;-65
2022/08/04 13:00:28;;;;;;;2.13;1.83;;;28.90;45.50;;;;;;5013782;28;20445;-65
2022/08/04 13:03:07;;;;;;;2.20;2.00;;;28.90;45.50;;;;;;5012684;28;20481;-65
2022/08/04 13:05:39;;;;;;;2.00;1.80;;;28.90;45.60;;;;;;5013262;28;20487;-66
2022/08/04 13:08:10;;;;;;;2.30;1.80;;;28.90;45.60;;;;;;5011853;28;20844;-65
2022/08/04 13:10:41;;;;;;;2.07;1.70;;;28.90;45.60;;;;;;5011799;28;20572;-64
2022/08/04 13:13:16;;;;;;;2.67;2.30;;;28.90;45.60;;;;;;5007688;28;20460;-65
2022/08/04 13:15:55;;;;;;;2.03;1.83;;;28.90;45.60;;;;;;5012903;28;20447;-65
2022/08/04 13:18:26;;;;;;;2.20;2.00;;;28.90;45.70;;;;;;5010119;28;20480;-64
2022/08/04 13:21:07;;;;;;;2.60;2.20;;;28.90;45.90;;;;;;5017036;28;20472;-65
2022/08/04 13:23:51;;;;;;;2.40;2.20;;;29.00;45.60;;;;;;5013370;28;20449;-65
2022/08/04 13:26:49;;;;;;;2.00;1.90;;;28.90;45.40;;;;;;5010806;28;20456;-65
2022/08/04 13:29:24;;;;;;;2.30;2.10;;;29.00;45.50;;;;;;5013231;28;20536;-65
2022/08/04 13:32:19;;;;;;;3.43;1.93;;;28.90;45.60;;;;;;5008034;28;20467;-64
2022/08/04 13:34:48;;;;;;;3.90;2.20;;;29.00;45.60;;;;;;5012777;28;20436;-65
2022/08/04 13:37:26;;;;;;;2.10;1.90;;;29.00;45.60;;;;;;5012912;28;20460;-64
2022/08/04 13:39:57;;;;;;;2.60;2.20;;;29.00;45.70;;;;;;5003431;28;20903;-63
2022/08/04 13:42:27;;;;;;;1.83;1.73;;;29.00;45.70;;;;;;5012339;28;20468;-65
2022/08/04 13:44:59;;;;;;;2.97;2.20;;;29.00;45.70;;;;;;5013080;28;20425;-64
2022/08/04 13:47:30;;;;;;;2.30;2.03;;;29.00;45.90;;;;;;5012717;28;20461;-64
2022/08/04 13:50:26;;;;;;;3.30;2.30;;;29.00;45.80;;;;;;5011931;28;20492;-65
2022/08/04 13:52:56;;;;;;;2.20;1.97;;;29.00;45.80;;;;;;4996361;28;20821;-66